»·PEaware :: SWA8565 KSEA-KPDX

SWA8565 :: KSEA-KPDX

FLIGHT INFORMATION

Flight Status: Arrived
Operator:
Southwest Airlines
More flights by this operator :: More flights under this callsign
Pilot: Tristan Z. (4790)
Aircraft: BOEING 737-700
(B737)
More flights by this aircraft type
Origin: KSEA Seattle-Tacoma Intl
United States
Destination: KPDX Portland Intl
United States
More flights between these airports :: More routes between these airports
Route: SEA7 SEA BUWZO KRATR2
File this flight plan on PilotEdge
Remarks:
Altitude:
(Current/Filed)
25,000ft
Speed:
(Current/Filed)
444kts
Departed: 14-Jan-21 07:21 PM
Arrived: 14-Jan-21 08:02 PM
Distance/Time
Traveled:
112nm/0:41
Distance/Time
To Go:
Arrived

Flight Plot

Page will automatically refresh every two minutes.

Flight plan parsing failed; only flown route is shown


Map Options




Map Legend


Flown Route
Filed Route
Departure Airport
Arrival Airport
Navaid (VOR, NDB)
Fix

Horizontal Profiles

Position Reports

Time Latitude Longitude Heading Altitude Ground
Speed
14-Jan-21 19:01 47.441299 -122.303103 271 441ft 0kts
14-Jan-21 19:02 47.441299 -122.303103 271 441ft 0kts
14-Jan-21 19:03 47.441299 -122.303103 271 441ft 0kts
14-Jan-21 19:04 47.441299 -122.303103 271 441ft 0kts
14-Jan-21 19:05 47.441299 -122.303103 271 441ft 0kts
14-Jan-21 19:06 47.441299 -122.303103 271 441ft 0kts
14-Jan-21 19:07 47.441299 -122.303103 271 441ft 0kts
14-Jan-21 19:08 47.441299 -122.303103 271 441ft 0kts
14-Jan-21 19:09 47.441299 -122.303103 271 441ft 0kts
14-Jan-21 19:10 47.441299 -122.303103 271 441ft 0kts
14-Jan-21 19:11 47.441298 -122.303004 271 441ft 2kts
14-Jan-21 19:12 47.441463 -122.302398 167 441ft 0kts
14-Jan-21 19:13 47.440694 -122.302067 163 441ft 0kts
14-Jan-21 19:14 47.440694 -122.302067 163 441ft 0kts
14-Jan-21 19:15 47.439907 -122.304601 270 441ft 0kts
14-Jan-21 19:16 47.440468 -122.306312 357 441ft 16kts
14-Jan-21 19:17 47.448212 -122.306277 0 441ft 28kts
14-Jan-21 19:18 47.456324 -122.306191 359 441ft 29kts
14-Jan-21 19:19 47.463566 -122.306354 316 441ft 0kts
14-Jan-21 19:20 47.448688 -122.307922 183 1038ft 162kts
14-Jan-21 19:21 47.396541 -122.307949 185 5115ft 211kts
14-Jan-21 19:22 47.332011 -122.309664 185 8447ft 260kts
14-Jan-21 19:23 47.258739 -122.309919 186 10803ft 268kts
14-Jan-21 19:24 47.183709 -122.309943 186 12000ft 268kts
14-Jan-21 19:25 47.105459 -122.310213 186 13849ft 310kts
14-Jan-21 19:26 47.016586 -122.310007 187 18394ft 334kts
14-Jan-21 19:27 46.921987 -122.309575 187 22331ft 359kts
14-Jan-21 19:28 46.819536 -122.309701 187 25297ft 382kts
14-Jan-21 19:29 46.712305 -122.309656 187 25355ft 388kts
14-Jan-21 19:30 46.605430 -122.309570 187 23708ft 377kts
14-Jan-21 19:31 46.502431 -122.309597 186 21545ft 366kts
14-Jan-21 19:32 46.402057 -122.309640 186 19422ft 356kts
14-Jan-21 19:33 46.304803 -122.309643 186 17298ft 345kts
14-Jan-21 19:34 46.214371 -122.333715 204 15348ft 324kts
14-Jan-21 19:35 46.131093 -122.379944 205 13672ft 318kts
14-Jan-21 19:36 46.049538 -122.424644 204 11837ft 310kts
14-Jan-21 19:37 45.971289 -122.466737 203 10259ft 279kts
14-Jan-21 19:38 45.910429 -122.514683 220 9221ft 239kts
14-Jan-21 19:39 45.861184 -122.576759 220 7717ft 234kts
14-Jan-21 19:40 45.818739 -122.630350 219 6408ft 232kts
14-Jan-21 19:41 45.771093 -122.693265 225 5011ft 228kts
14-Jan-21 19:42 45.757645 -122.772023 282 4977ft 222kts
14-Jan-21 19:43 45.781500 -122.854263 289 4511ft 223kts
14-Jan-21 19:44 45.805726 -122.935649 289 3504ft 219kts
14-Jan-21 19:45 45.829402 -123.015642 289 3473ft 219kts
14-Jan-21 19:46 45.853645 -123.096496 289 3474ft 222kts
14-Jan-21 19:47 45.878313 -123.177991 289 3474ft 221kts
14-Jan-21 19:48 45.902991 -123.259114 289 3475ft 223kts
14-Jan-21 19:49 45.905778 -123.339340 207 3488ft 224kts
14-Jan-21 19:50 45.858662 -123.296945 126 3478ft 238kts
14-Jan-21 19:51 45.830401 -123.210453 115 3475ft 240kts
14-Jan-21 19:52 45.801324 -123.122290 123 3473ft 243kts
14-Jan-21 19:53 45.768139 -123.037442 124 3473ft 245kts
14-Jan-21 19:54 45.734214 -122.955246 122 3469ft 222kts
14-Jan-21 19:55 45.704029 -122.877692 121 3476ft 224kts
14-Jan-21 19:56 45.675474 -122.803601 120 3255ft 208kts
14-Jan-21 19:57 45.649166 -122.735634 119 2262ft 173kts
14-Jan-21 19:58 45.629187 -122.684277 121 1422ft 127kts
14-Jan-21 19:59 45.612391 -122.640919 119 793ft 122kts
14-Jan-21 20:00 45.596254 -122.599333 119 127ft 116kts
14-Jan-21 20:01 45.588525 -122.582278 241 37ft 1kts
14-Jan-21 20:02 45.588780 -122.583403 298 37ft 21kts
14-Jan-21 20:03 45.591204 -122.591702 298 37ft 22kts
14-Jan-21 20:04 45.592049 -122.598488 209 37ft 0kts
14-Jan-21 20:05 45.590628 -122.597615 148 37ft 11kts
14-Jan-21 20:06 45.590040 -122.597907 208 37ft 0kts
14-Jan-21 20:07 45.590040 -122.597907 208 37ft 0kts
14-Jan-21 20:08 45.590040 -122.597907 208 37ft 0kts
14-Jan-21 20:09 45.590040 -122.597907 208 37ft 0kts

Navigation Log

Ident Type
Flight plan parsing failed, navigation log unavailable